Cazaux (BA 120) Air Base

LFBC · Landes, Nouvelle-Aquitaine, 法国

罗盘
风向 的 Cazaux (BA 120) Air Base 6/24
风: 0 kt, 0 beaufort


改变
0 5.000 10.000 15.000 20.000
BKN 2.800 ft
BKN 6.600 ft
OVC 15.000 ft
SPECI LFBD 040030Z AUTO 00000KT 4100 R05/1000D R29/1400N BR BKN028 BKN066 OVC150 01/00 Q1009 TEMPO 0800 BCFG

METAR Cazaux (BA 120) Air Base - LFBC

Cazaux (BA 120) Air Base是,法国中的中型机场。 该机场有一条跑道: 6/24. 该领域的国际民航组织标志是LFBC.

这份报告是针对2022年12月4日 01:30, 当地时间在Bordeaux-Mérignac Airport进行的。

机场观察

可变方向的风很小或没有风。

可见度为4,1 km。 跑道05的能见度为1.000 m 和 减少。 跑道29的能见度为1.400 m 和 没有趋势。

有碎云在2.800 ft的高度, 碎云在6.600 ft的高度 和 乌云密布在15.000 ft的高度。 破损或更高的上限为2.800 ft。

当前天气为薄雾。 温度和风寒是1 °C。 海平面上的气压为1009 hPa (QNH)。

发展趋势

  • 暂时的

    可变方向的风很小或没有。 可见性变为800 m。 重大天气:的补丁 多雾路段。

白天

今天,太阳从08:24升起,在17:25降落。 这适用于Cazaux (BA 120) Air Base,世界夏令时可能有所不同。 当地时间与世界标准时间之间的时差为+1 小时。 当前,没有夏令时有效。

公司介绍

我们没有关于这个机场的公司信息。

体会

到Vliegles.nl去找飞行课程,跳伞和其他飞行体验。 浏览页面,了解Cazaux (BA 120) Air Base附近所有可用的活动。 你也可以使用搜索功能来寻找你所在地附近的特定飞行课程、跳伞或其他飞行体验。

警示语

跑道05处的能见度为1.000 m 和 减少。
跑道29处的能见度为1.400 m 和 没有趋势。

跑道

Id 标题 侧风 逆风 侧风 %
6/24 057°-237°

逆风成分最大的方向会被突出显示,并用于横风计算。 这并不一定意味着这个方向在使用。

乌云

2.800 ft BKN 碎云
6.600 ft BKN 碎云
15.000 ft OVC 乌云密布

温度 & 天气

天气 薄雾
温度 1 °C
露点 0 °C
相对湿度 93%
Kp-index 0 (0-9)

白天

日出
08:23 (6:37)
中午
12:53
日落
17:22

小工具

你想在你的网站上有一个关于Cazaux (BA 120) Air Base的当前航空天气(METAR)的小部件吗?

显示HTML代码

我们和第三方通过cookies跟踪您在我们网站上的互联网行为。如果你继续,我们认为你同意我们的饼干政策